• Join FlightAware (Why Join?)
  • Login
  • US Flag 
09:08PM EDT


 

Airport Tracker/Info


-or-


 

Live Flight TrackerFlight Track Log ✈ UAL118 ✈ 09-Apr-2013 ✈ EDDF / FRA - KEWR

Flight Track Log - Related Links

Times and Time Zones

All times are in EDT time to prevent confusion due to time zone crossing. See the UAL118 flight status page for this flight to view local times or setup timezone preferences in your user account.

Time Position Orientation Groundspeed Altitude Reporting Facility
EDT Latitude Longitude Course Direction KTS MPH feet Rate Location/Type
02:58AM 50.0260 8.4950 280° West 179 206 3,000  Level FlightAware
02:58AM 50.0280 8.4760 279° West 178 205 3,600 2,100 Climbing FlightAware
02:58AM 50.0290 8.4440 273° West 197 227 4,400 1,620 Climbing FlightAware
02:59AM 50.0270 8.4210 262° West 218 251 4,700 1,680 Climbing FlightAware
02:59AM 50.0190 8.3710 256° West 249 287 5,700 1,080 Climbing FlightAware
03:00AM 50.0140 8.3340 258° West 249 287 5,700 2,760 Level FlightAware
03:00AM 50.0200 8.2510 276° West 261 300 8,900 3,480 Climbing FlightAware
03:01AM 50.0400 8.1800 294° West 278 320 10,700 1,980 Climbing FlightAware
03:02AM 50.0660 8.1070 299° West 322 371 11,600 1,920 Climbing FlightAware
03:02AM 50.1100 8.0220 309° West 338 389 13,500 2,520 Climbing FlightAware
03:03AM 50.1490 7.9460 309° West 342 394 15,200 2,640 Climbing FlightAware
03:04AM 50.1970 7.8520 309° West 348 400 17,300 2,520 Climbing FlightAware
03:05AM 50.2370 7.7750 309° West 357 411 18,800 2,220 Climbing FlightAware
03:05AM 50.2950 7.7130 326° Northwest 378 435 20,300 2,100 Climbing FlightAware
03:06AM 50.3670 7.6640 337° Northwest 382 440 21,800 1,260 Climbing FlightAware
03:07AM 50.4350 7.6190 337° Northwest 385 443 22,100 1,080 Climbing FlightAware
03:07AM 50.5010 7.5730 336° Northwest 385 443 23,300 2,160 Climbing FlightAware
03:08AM 50.5760 7.5150 334° Northwest 375 432 25,200 2,160 Climbing FlightAware
03:09AM 50.6340 7.4570 328° Northwest 385 443 26,400 1,680 Climbing FlightAware
03:09AM 50.7020 7.3860 327° Northwest 384 442 27,600 1,440 Climbing FlightAware
03:10AM 50.7570 7.3190 322° Northwest 384 442 28,500 1,320 Climbing FlightAware
03:11AM 50.8010 7.1750 296° West 390 449 29,700 1,140 Climbing FlightAware
03:12AM 50.8060 7.0440 274° West 405 466 30,400 1,080 Climbing FlightAware
03:13AM 50.8230 6.9160 282° West 409 471 31,400 1,260 Climbing FlightAware
03:13AM 50.8360 6.8300 283° West 411 473 32,100 1,200 Climbing FlightAware
03:14AM 50.8620 6.6610 284° West 416 479 33,200 1,200 Climbing FlightAware
03:15AM 50.8840 6.5160 284° West 420 483 34,200 1,200 Climbing FlightAware
03:16AM 50.9020 6.3940 283° West 420 483 35,000 960 Climbing FlightAware
03:17AM 50.9320 6.1940 283° West 423 487 36,000 420 Climbing FlightAware
03:18AM 50.9640 5.9730 283° West 425 489 36,000  Level FlightAware
03:19AM 50.9800 5.8600 283° West 425 489 36,000  Level FlightAware
03:19AM 50.9960 5.7540 284° West 423 487 36,000  Level FlightAware
03:20AM 51.0240 5.5530 283° West 423 487 36,000  Level FlightAware
03:21AM 51.0430 5.4170 283° West 426 490 36,000  Level FlightAware
03:22AM 51.0620 5.2850 283° West 425 489 36,000  Level FlightAware
03:22AM 51.0800 5.1560 283° West 426 490 36,000  Level FlightAware
03:23AM 51.0990 5.0160 282° West 427 491 36,000  Level FlightAware
03:24AM 51.1150 4.8950 282° West 428 493 36,000  Level FlightAware
03:24AM 51.1320 4.7720 282° West 429 494 36,000 -1,440 Level FlightAware
03:25AM 51.1418 4.6893 282° West 456 525 34,500  Descending FlightAware UK
03:25AM 51.1500 4.6340 282° West 429 494 36,000  Climbing FlightAware
03:25AM 51.1574 4.5584 282° West 456 525 34,500  Descending FlightAware UK
03:26AM 51.1660 4.5110 282° West 429 494 36,000  Climbing FlightAware
03:26AM 51.1743 4.4297 282° West 458 527 34,500  Descending FlightAware UK
03:27AM 51.1850 4.3690 282° West 429 494 36,000  Climbing FlightAware
03:27AM 51.1916 4.3014 282° West 456 525 34,500  Descending FlightAware UK
03:27AM 51.2000 4.2510 282° West 430 495 36,000 1,500 Climbing FlightAware
03:28AM 51.2160 4.1260 282° West 431 496 36,000 -1,320 Level FlightAware
03:28AM 51.2268 4.0228 282° West 458 527 34,500  Descending FlightAware UK
03:29AM 51.2330 3.9890 282° West 431 496 36,000 1,620 Climbing FlightAware
03:29AM 51.2490 3.8640 282° West 431 496 36,000  Level FlightAware
03:30AM 51.2650 3.7360 281° West 432 497 36,000  Level FlightAware
03:31AM 51.2830 3.5910 281° West 432 497 36,000 -1,380 Level FlightAware
03:31AM 51.2883 3.5224 281° West 458 527 34,500  Descending FlightAware UK
03:31AM 51.2980 3.4660 281° West 432 497 36,000 1,380 Climbing FlightAware
03:32AM 51.3140 3.3310 281° West 432 497 36,000 -1,380 Level FlightAware
03:32AM 51.3196 3.2606 281° West 456 525 34,500  Descending FlightAware UK
03:33AM 51.3280 3.2200 281° West 432 497 36,000  Climbing FlightAware
03:33AM 51.3374 3.1112 281° West 456 525 34,500  Descending FlightAware UK
03:34AM 51.3460 3.0650 281° West 433 498 36,000 1,560 Climbing FlightAware
03:34AM 51.3610 2.9380 281° West 434 499 36,000 -1,620 Level FlightAware
03:34AM 51.3638 2.8855 281° West 458 527 34,500 -2,700 Descending FlightAware UK
03:35AM 51.3704 2.8290 281° West 458 527 34,500 3,720 Level FlightAware UK
03:35AM 51.3750 2.8170 281° West 434 499 36,000  Climbing FlightAware
03:35AM 51.3791 2.7536 281° West 458 527 34,500  Descending FlightAware UK
03:36AM 51.3910 2.6780 281° West 434 499 36,000  Climbing FlightAware
03:36AM 51.3982 2.5841 281° West 458 527 34,500  Descending FlightAware UK
03:36AM 51.4071 2.5303 281° West 435 501 36,000  Climbing FlightAware ADS-B
03:37AM 51.4113 2.4702 281° West 458 527 34,500  Descending FlightAware UK
03:37AM 51.4196 2.4185 281° West 435 501 36,000  Climbing FlightAware ADS-B
03:37AM 51.4256 2.3392 281° West 456 525 34,500  Descending FlightAware UK
03:38AM 51.4349 2.2797 281° West 434 499 36,000 1,800 Climbing FlightAware ADS-B
03:38AM 51.4460 2.1787 280° West 434 499 36,000 -1,860 Level FlightAware ADS-B
03:38AM 51.4482 2.1316 280° West 456 525 34,500  Descending FlightAware UK
03:39AM 51.4567 2.0795 280° West 434 499 36,000 1,980 Climbing FlightAware ADS-B
03:39AM 51.4656 1.9830 278° West 434 499 36,000 -1,980 Level FlightAware ADS-B
03:39AM 51.4655 1.9418 278° West 458 527 34,500  Descending FlightAware UK
03:40AM 51.4730 1.8843 278° West 434 499 36,000  Climbing FlightAware ADS-B
03:40AM 51.4743 1.8276 278° West 458 527 34,500  Descending FlightAware UK
03:40AM 51.4807 1.7844 278° West 434 499 36,000  Climbing FlightAware ADS-B
03:41AM 51.4818 1.7329 278° West 458 527 34,500  Descending FlightAware UK
03:41AM 51.4886 1.6857 278° West 434 499 36,000  Climbing FlightAware ADS-B
03:41AM 51.4896 1.6378 278° West 456 525 34,500  Descending FlightAware UK
03:41AM 51.4964 1.5891 278° West 434 499 36,000  Climbing FlightAware ADS-B
03:42AM 51.4974 1.5426 278° West 456 525 34,500  Descending FlightAware UK
03:42AM 51.5051 1.4795 278° West 434 499 36,000  Climbing FlightAware ADS-B
03:42AM 51.5067 1.4285 278° West 456 525 34,500  Descending FlightAware UK
03:43AM 51.5151 1.3501 278° West 434 499 36,000  Climbing FlightAware ADS-B
03:43AM 51.5156 1.3147 278° West 456 525 34,500  Descending FlightAware UK
03:43AM 51.5226 1.2531 278° West 435 501 36,000  Climbing FlightAware ADS-B
03:43AM 51.5242 1.1999 278° West 456 525 34,500  Descending FlightAware UK
03:44AM 51.5300 1.1552 278° West 435 501 36,000 2,160 Climbing FlightAware ADS-B
03:44AM 51.5372 1.0579 277° West 436 502 36,000  Level FlightAware ADS-B
03:45AM 51.5446 0.9586 277° West 436 502 36,000 -1,860 Level FlightAware ADS-B
03:45AM 51.5459 0.9127 277° West 456 525 34,500  Descending FlightAware UK
03:45AM 51.5523 0.8501 277° West 436 502 36,000  Climbing FlightAware ADS-B
03:45AM 51.5542 0.7974 277° West 456 525 34,500  Descending FlightAware UK
03:46AM 51.5595 0.7500 277° West 437 503 36,000  Climbing FlightAware ADS-B
03:46AM 51.5611 0.7013 277° West 458 527 34,500  Descending FlightAware UK
03:46AM 51.5666 0.6492 277° West 436 502 36,000  Climbing FlightAware ADS-B
03:47AM 51.5693 0.5866 277° West 458 527 34,500  Descending FlightAware UK
03:47AM 51.5734 0.5529 277° West 437 503 36,000 2,340 Climbing FlightAware ADS-B
03:47AM 51.5801 0.4550 276° West 437 503 36,000  Level FlightAware ADS-B
03:48AM 51.5868 0.3567 276° West 437 503 36,000 -1,980 Level FlightAware ADS-B
03:48AM 51.5881 0.3176 276° West 456 525 34,500  Descending FlightAware UK
03:48AM 51.5935 0.2551 276° West 438 504 36,000 1,860 Climbing FlightAware ADS-B
03:49AM 51.6002 0.1556 276° West 437 503 36,000  Level FlightAware ADS-B
03:49AM 51.6065 0.0569 276° West 438 504 36,000 -1,860 Level FlightAware ADS-B
03:50AM 51.6087 0.0090 276° West 458 527 34,500  Descending FlightAware UK
03:50AM 51.6131 -0.0431 276° West 438 504 36,000  Climbing FlightAware ADS-B
03:50AM 51.6161 -0.1066 276° West 458 527 34,500  Descending FlightAware UK
03:50AM 51.6193 -0.1422 276° West 439 505 36,000 2,400 Climbing FlightAware ADS-B
03:51AM 51.6254 -0.2405 276° West 439 505 36,000 -1,920 Level FlightAware ADS-B
03:51AM 51.6272 -0.2822 276° West 458 527 34,500  Descending FlightAware UK
03:51AM 51.6316 -0.3403 276° West 439 505 36,000 2,040 Climbing FlightAware ADS-B
03:52AM 51.6376 -0.4381 276° West 439 505 36,000  Level FlightAware ADS-B
03:52AM 51.6435 -0.5375 276° West 439 505 36,000 -1,980 Level FlightAware ADS-B
03:53AM 51.6451 -0.5729 276° West 460 529 34,500  Descending FlightAware UK
03:53AM 51.6493 -0.6348 276° West 440 506 36,000  Climbing FlightAware ADS-B
03:53AM 51.6512 -0.6697 276° West 460 529 34,500  Descending FlightAware UK
03:53AM 51.6550 -0.7329 276° West 440 506 36,000 1,920 Climbing FlightAware ADS-B
03:54AM 51.6610 -0.8348 275° West 439 505 36,000  Level FlightAware ADS-B
03:54AM 51.6667 -0.9354 275° West 439 505 36,000 -1,860 Level FlightAware ADS-B
03:55AM 51.6693 -0.9809 275° West 460 529 34,500  Descending FlightAware UK
03:55AM 51.6721 -1.0344 275° West 439 505 36,000  Climbing FlightAware ADS-B
03:55AM 51.6749 -1.0782 275° West 460 529 34,500  Descending FlightAware UK
03:55AM 51.6774 -1.1330 275° West 438 504 36,000  Climbing FlightAware ADS-B
03:56AM 51.6803 -1.1749 275° West 460 529 34,500  Descending FlightAware UK
03:56AM 51.6828 -1.2308 275° West 438 504 36,000  Climbing FlightAware ADS-B
03:56AM 51.6856 -1.2722 275° West 460 529 34,500  Descending FlightAware UK
03:56AM 51.6879 -1.3285 275° West 438 504 36,000  Climbing FlightAware ADS-B
03:57AM 51.6918 -1.3880 275° West 458 527 34,500  Descending FlightAware UK
03:57AM 51.6931 -1.4281 275° West 437 503 36,000  Climbing FlightAware ADS-B
03:57AM 51.6969 -1.4852 275° West 460 529 34,500  Descending FlightAware UK
03:57AM 51.6980 -1.5271 275° West 436 502 36,000 2,220 Climbing FlightAware ADS-B
03:58AM 51.7030 -1.6253 275° West 436 502 36,000  Level FlightAware ADS-B
03:58AM 51.7080 -1.7235 275° West 436 502 36,000 -1,800 Level FlightAware ADS-B
03:59AM 51.7119 -1.7764 275° West 460 529 34,500  Descending FlightAware UK
03:59AM 51.7126 -1.8217 275° West 435 501 36,000 3,060 Climbing FlightAware ADS-B
03:59AM 51.7159 -1.8802 275° West 435 501 36,000 -2,400 Level FlightAware ADS-B
04:00AM 51.7217 -1.9304 275° West 460 529 34,500  Descending FlightAware UK
04:00AM 51.7240 -1.9762 275° West 433 498 36,000  Climbing FlightAware ADS-B
04:00AM 51.7316 -2.0259 275° West 460 529 34,500  Descending FlightAware UK
04:00AM 51.7358 -2.0818 275° West 432 497 36,000  Climbing FlightAware ADS-B
04:01AM 51.7435 -2.1206 275° West 458 527 34,500  Descending FlightAware UK
04:01AM 51.7489 -2.1838 275° West 432 497 36,000  Climbing FlightAware ADS-B
04:01AM 51.7584 -2.2333 275° West 458 527 34,500  Descending FlightAware UK
04:01AM 51.7612 -2.2792 275° West 431 496 36,000  Climbing FlightAware ADS-B
04:02AM 51.7709 -2.3277 275° West 458 527 34,500  Descending FlightAware UK
04:02AM 51.7741 -2.3784 275° West 430 495 36,000  Climbing FlightAware ADS-B
04:02AM 51.7831 -2.4214 275° West 456 525 34,500  Descending FlightAware UK
04:02AM 51.7863 -2.4737 275° West 429 494 36,000  Climbing FlightAware ADS-B
04:03AM 51.7951 -2.5164 275° West 456 525 34,500  Descending FlightAware UK
04:03AM 51.7986 -2.5727 275° West 429 494 36,000  Climbing FlightAware ADS-B
04:03AM 51.8067 -2.6100 275° West 456 525 34,500  Descending FlightAware UK
04:03AM 51.8107 -2.6711 275° West 429 494 36,000  Climbing FlightAware ADS-B
04:04AM 51.8208 -2.7232 275° West 456 525 34,500  Descending FlightAware UK
04:04AM 51.8223 -2.7669 275° West 429 494 36,000  Climbing FlightAware ADS-B
04:04AM 51.8322 -2.8167 275° West 454 522 34,500  Descending FlightAware UK
04:04AM 51.8348 -2.8709 275° West 429 494 36,000  Climbing FlightAware ADS-B
04:05AM 51.8459 -2.9305 275° West 454 522 34,500 -2,340 Descending FlightAware UK
04:05AM 51.8525 -2.9864 281° West 456 525 34,500  Level FlightAware UK
04:05AM 51.8592 -3.0429 281° West 456 525 34,500 4,260 Level FlightAware UK
04:05AM 51.8560 -3.0510 281° West 427 491 36,000 4,500 Climbing FlightAware
04:06AM 51.8635 -3.1126 281° West 428 493 36,000 -2,760 Level FlightAware ADS-B
04:06AM 51.8727 -3.1559 281° West 456 525 34,500 -2,700 Descending FlightAware UK
04:06AM 51.8795 -3.2125 281° West 456 525 34,500  Level FlightAware UK
04:07AM 51.8861 -3.2684 281° West 458 527 34,500 2,640 Level FlightAware UK
04:07AM 51.8870 -3.3130 281° West 427 491 36,000  Climbing FlightAware
04:07AM 51.9036 -3.4192 281° West 460 529 34,500  Descending FlightAware UK
04:08AM 51.9040 -3.4580 281° West 426 490 36,000  Climbing FlightAware
04:08AM 51.9145 -3.5134 281° West 460 529 34,500  Descending FlightAware UK
04:08AM 51.9180 -3.5820 281° West 425 489 36,000 1,380 Climbing FlightAware
04:09AM 51.9310 -3.7020 280° West 423 487 36,000 -1,680 Level FlightAware
04:09AM 51.9425 -3.7569 280° West 458 527 34,500 -2,760 Descending FlightAware UK
04:10AM 51.9487 -3.8130 280° West 458 527 34,500 3,000 Level FlightAware UK
04:10AM 51.9480 -3.8480 280° West 421 484 36,000  Climbing FlightAware
04:10AM 51.9592 -3.9062 280° West 458 527 34,500  Descending FlightAware UK
04:10AM 51.9620 -3.9720 280° West 420 483 36,000  Climbing FlightAware
04:11AM 51.9735 -4.0360 280° West 456 525 34,500  Descending FlightAware UK
04:11AM 51.9710 -4.0550 280° West 419 482 36,000  Climbing FlightAware
04:11AM 51.9797 -4.0925 280° West 456 525 34,500 -6,000 Descending FlightAware UK
04:11AM 51.9837 -4.1291 280° West 456 525 34,500  Level FlightAware UK
04:12AM 51.9920 -4.2033 280° West 456 525 34,500 2,520 Level FlightAware UK
04:12AM 51.9900 -4.2350 280° West 418 481 36,000  Climbing FlightAware
04:12AM 52.0021 -4.2962 280° West 454 522 34,500  Descending FlightAware UK
04:12AM 52.0020 -4.3390 280° West 418 481 36,000  Climbing FlightAware
04:12AM 52.0081 -4.3518 280° West 454 522 34,500 -4,740 Descending FlightAware UK
04:13AM 52.0140 -4.4068 280° West 452 520 34,500  Level FlightAware UK
04:13AM 52.0200 -4.4624 280° West 452 520 34,500 3,420 Level FlightAware UK
04:13AM 52.0160 -4.4750 280° West 417 480 36,000  Climbing FlightAware
04:13AM 52.0279 -4.5364 280° West 452 520 34,500 -2,700 Descending FlightAware UK
04:14AM 52.0337 -4.5921 280° West 450 518 34,500 3,060 Level FlightAware UK
04:14AM 52.0310 -4.6170 280° West 417 480 36,000  Climbing FlightAware
04:14AM 52.0454 -4.7034 280° West 452 520 34,500  Descending FlightAware UK
04:15AM 52.0460 -4.7600 280° West 417 480 36,000  Climbing FlightAware
04:15AM 52.0570 -4.8147 280° West 450 518 34,500 -2,700 Descending FlightAware UK
04:15AM 52.0627 -4.8705 279° West 450 518 34,500 3,720 Level FlightAware UK
04:15AM 52.0590 -4.8810 279° West 417 480 36,000  Climbing FlightAware
04:16AM 52.0703 -4.9448 279° West 450 518 34,500 -2,520 Descending FlightAware UK
04:16AM 52.0759 -5.0006 279° West 448 516 34,500 4,080 Level FlightAware UK
04:16AM 52.0710 -5.0050 279° West 417 480 36,000  Climbing FlightAware
04:16AM 52.0835 -5.0751 279° West 450 518 34,500  Descending FlightAware UK
04:17AM 52.0850 -5.1440 279° West 419 482 36,000  Climbing FlightAware
04:17AM 52.0967 -5.2056 279° West 450 518 34,500  Descending FlightAware UK
04:18AM 52.1020 -5.3180 279° West 420 483 36,000 1,140 Climbing FlightAware
04:18AM 52.1140 -5.4400 279° West 420 483 36,000 -1,560 Level FlightAware
04:19AM 52.1260 -5.5045 279° West 452 520 34,500 -2,520 Descending FlightAware UK
04:19AM 52.1315 -5.5608 279° West 452 520 34,500 3,300 Level FlightAware UK
04:19AM 52.1280 -5.5820 279° West 421 484 36,000  Climbing FlightAware
04:19AM 52.1388 -5.6359 279° West 452 520 34,500 -2,760 Descending FlightAware UK
04:20AM 52.1443 -5.6924 279° West 452 520 34,500 3,600 Level FlightAware UK
04:20AM 52.1410 -5.7080 279° West 422 486 36,000  Climbing FlightAware
04:20AM 52.1515 -5.7676 279° West 452 520 34,500 -2,580 Descending FlightAware UK
04:20AM 52.1573 -5.8239 280° West 452 520 34,500 3,180 Level FlightAware UK
04:20AM 52.1570 -5.8450 280° West 421 484 36,000  Climbing FlightAware
04:21AM 52.1758 -5.9142 280° West 454 522 34,500 -2,400 Descending FlightAware UK
04:21AM 52.1888 -5.9675 292° West 452 520 34,500 4,500 Level FlightAware UK
04:21AM 52.1840 -5.9640 292° West 422 486 36,000  Climbing FlightAware
04:21AM 52.2019 -6.0201 292° West 454 522 34,500 -2,700 Descending FlightAware UK
04:22AM 52.2152 -6.0732 292° West 454 522 34,500 3,720 Level FlightAware UK
04:22AM 52.2130 -6.0800 292° West 423 487 36,000  Climbing FlightAware
04:22AM 52.2330 -6.1441 292° West 454 522 34,500 -2,520 Descending FlightAware UK
04:22AM 52.2463 -6.1973 292° West 454 522 34,500 3,300 Level FlightAware UK
04:23AM 52.2460 -6.2150 292° West 423 487 36,000  Climbing FlightAware
04:23AM 52.2638 -6.2686 292° West 454 522 34,500 -2,760 Descending FlightAware UK
04:23AM 52.2771 -6.3220 292° West 454 522 34,500 3,600 Level FlightAware UK
04:23AM 52.2750 -6.3310 292° West 425 489 36,000  Climbing FlightAware
04:24AM 52.2945 -6.3936 292° West 456 525 34,500 -2,580 Descending FlightAware UK
04:24AM 52.3075 -6.4474 292° West 456 525 34,500 3,900 Level FlightAware UK
04:24AM 52.3050 -6.4560 292° West 425 489 36,000  Climbing FlightAware
04:24AM 52.3248 -6.5192 292° West 458 527 34,500 -2,460 Descending FlightAware UK
04:25AM 52.3379 -6.5730 292° West 458 527 34,500 3,420 Level FlightAware UK
04:25AM 52.3380 -6.5890 292° West 425 489 36,000  Climbing FlightAware
04:25AM 52.3552 -6.6449 292° West 458 527 34,500 -2,700 Descending FlightAware UK
04:25AM 52.3681 -6.6988 291° West 458 527 34,500 3,720 Level FlightAware UK
04:25AM 52.3670 -6.7090 291° West 426 490 36,000  Climbing FlightAware
04:26AM 52.3853 -6.7708 291° West 458 527 34,500 -2,520 Descending FlightAware UK
04:26AM 52.3984 -6.8246 292° West 456 525 34,500 4,080 Level FlightAware UK
04:26AM 52.3950 -6.8270 292° West 425 489 36,000  Climbing FlightAware
04:26AM 52.4154 -6.8967 292° West 456 525 34,500 -2,400 Descending FlightAware UK
04:27AM 52.4282 -6.9507 291° West 456 525 34,500 3,600 Level FlightAware UK
04:27AM 52.4270 -6.9610 291° West 426 490 36,000  Climbing FlightAware
04:27AM 52.4453 -7.0228 291° West 456 525 34,500 -2,580 Descending FlightAware UK
04:27AM 52.4580 -7.0768 291° West 456 525 34,500 3,900 Level FlightAware UK
04:27AM 52.4560 -7.0820 291° West 425 489 36,000  Climbing FlightAware
04:28AM 52.4750 -7.1489 291° West 454 522 34,500 -2,460 Descending FlightAware UK
04:28AM 52.4876 -7.2024 291° West 454 522 34,500 3,420 Level FlightAware UK
04:28AM 52.4870 -7.2150 291° West 426 490 36,000  Climbing FlightAware
04:28AM 52.5045 -7.2747 291° West 454 522 34,500 -2,700 Descending FlightAware UK
04:29AM 52.5172 -7.3289 291° West 456 525 34,500 3,720 Level FlightAware UK
04:29AM 52.5150 -7.3310 291° West 427 491 36,000  Climbing FlightAware
04:29AM 52.5340 -7.4013 291° West 454 522 34,500 -2,520 Descending FlightAware UK
04:29AM 52.5466 -7.4557 291° West 454 522 34,500 4,080 Level FlightAware UK
04:29AM 52.5420 -7.4470 291° West 427 491 36,000  Climbing FlightAware
04:30AM 52.5634 -7.5282 291° West 454 522 34,500 -2,400 Descending FlightAware UK
04:30AM 52.5759 -7.5827 291° West 456 525 34,500 3,600 Level FlightAware UK
04:30AM 52.5760 -7.5920 291° West 427 491 36,000  Climbing FlightAware
04:31AM 52.5927 -7.6555 291° West 456 525 34,500 -2,580 Descending FlightAware UK
04:31AM 52.6052 -7.7100 291° West 456 525 34,500 3,900 Level FlightAware UK
04:31AM 52.6030 -7.7120 291° West 427 491 36,000  Climbing FlightAware
04:31AM 52.6219 -7.7828 291° West 454 522 34,500 -2,460 Descending FlightAware UK
04:32AM 52.6344 -7.8373 291° West 454 522 34,500 4,260 Level FlightAware UK
04:32AM 52.6310 -7.8340 291° West 427 491 36,000  Climbing FlightAware
04:32AM 52.6469 -7.8920 291° West 454 522 34,500 -2,760 Descending FlightAware UK
04:32AM 52.6592 -7.9468 290° West 454 522 34,500 3,000 Level FlightAware UK
04:32AM 52.6620 -7.9700 290° West 428 493 36,000  Climbing FlightAware
04:33AM 52.6797 -8.0381 290° West 456 525 34,500 -2,520 Descending FlightAware UK
04:33AM 52.6921 -8.0929 290° West 456 525 34,500 4,080 Level FlightAware UK
04:33AM 52.6900 -8.0940 290° West 428 493 36,000  Climbing FlightAware
04:33AM 52.7086 -8.1661 290° West 456 525 34,500 -2,400 Descending FlightAware UK
04:34AM 52.7209 -8.2211 290° West 456 525 34,500 3,600 Level FlightAware UK
04:34AM 52.7200 -8.2250 290° West 428 493 36,000  Climbing FlightAware
04:34AM 52.7373 -8.2944 290° West 454 522 34,500 -2,580 Descending FlightAware UK
04:34AM 52.7496 -8.3494 290° West 454 522 34,500 4,980 Level FlightAware UK
04:34AM 52.7420 -8.3220 290° West 428 493 36,000  Climbing FlightAware
04:35AM 52.7618 -8.4039 290° West 454 522 34,500 -2,520 Descending FlightAware UK
04:35AM 52.7739 -8.4591 290° West 454 522 34,500 2,760 Level FlightAware UK
04:35AM 52.7800 -8.4920 290° West 430 495 36,000  Climbing FlightAware
04:35AM 52.7942 -8.5513 290° West 454 522 34,500 -2,700 Descending FlightAware UK
04:36AM 52.8063 -8.6067 290° West 456 525 34,500 3,720 Level FlightAware UK
04:36AM 52.8040 -8.6030 290° West 429 494 36,000  Climbing FlightAware
04:36AM 52.8225 -8.6807 290° West 456 525 34,500 -2,520 Descending FlightAware UK
04:36AM 52.8346 -8.7362 290° West 456 525 34,500 3,300 Level FlightAware UK
04:37AM 52.8380 -8.7550 290° West 430 495 36,000  Climbing FlightAware
04:37AM 52.8507 -8.8103 290° West 456 525 34,500 -2,760 Descending FlightAware UK
04:37AM 52.8628 -8.8659 290° West 456 525 34,500 4,080 Level FlightAware UK
04:37AM 52.8650 -8.8790 290° West 428 493 36,200 1,200 Climbing FlightAware
04:38AM 52.8789 -8.9398 290° West 452 520 35,000 -1,740 Descending FlightAware UK
04:38AM 52.8908 -8.9953 290° West 454 522 35,200 4,680 Climbing FlightAware UK
04:38AM 52.8910 -8.9970 290° West 431 496 36,800 2,400 Climbing FlightAware
04:39AM 52.9310 -9.1820 290° West 429 494 37,800 720 Climbing FlightAware
04:39AM 52.9540 -9.2920 289° West 432 497 38,000 120 Climbing FlightAware
04:40AM 52.9830 -9.4260 290° West 434 499 38,000  Level FlightAware
04:41AM 53.0210 -9.6070 289° West 434 499 38,000  Level FlightAware
04:42AM 53.0500 -9.7460 289° West 432 497 38,000  Level FlightAware
04:43AM 53.0800 -9.8870 290° West 432 497 38,000  Level FlightAware
04:44AM 53.1150 -10.0580 289° West 432 497 38,000  Level FlightAware
04:44AM 53.1380 -10.1690 289° West 431 496 38,000  Level FlightAware
04:45AM 53.1700 -10.3280 289° West 430 495 38,000  Level FlightAware
04:46AM 53.1950 -10.4540 288° West 431 496 38,000  Level FlightAware
04:46AM 53.2180 -10.5650 289° West 429 494 38,000  Level FlightAware
04:47AM 53.2490 -10.7220 288° West 429 494 38,000  Level FlightAware
04:48AM 53.2750 -10.8510 289° West 430 495 38,000  Level FlightAware
04:48AM 53.2990 -10.9760 288° West 432 497 38,000  Level FlightAware
04:49AM 53.3360 -11.1660 288° West 432 497 38,000  Level FlightAware
04:50AM 53.3580 -11.2780 288° West 432 497 38,000  Level FlightAware
04:51AM 53.3880 -11.4330 288° West 432 497 38,000  Level FlightAware
04:51AM 53.4130 -11.5640 288° West 432 497 38,000  Level FlightAware
04:52AM 53.4360 -11.6890 287° West 433 498 38,000  Level FlightAware
04:53AM 53.4630 -11.8320 288° West 433 498 38,000  Level FlightAware
04:53AM 53.4840 -11.9450 287° West 432 497 38,000  Level FlightAware
04:54AM 53.5100 -12.0860 287° West 433 498 38,000  Level FlightAware
04:55AM 53.5380 -12.2360 287° West 434 499 38,000  Level FlightAware
04:56AM 53.5590 -12.3500 287° West 431 496 38,000  Level FlightAware
04:56AM 53.5870 -12.5060 287° West 431 496 38,000  Level FlightAware
04:57AM 53.6060 -12.6130 287° West 431 496 38,000  Level FlightAware
04:58AM 53.6350 -12.7750 287° West 431 496 38,000  Level FlightAware
04:58AM 53.6550 -12.8880 287° West 432 497 38,000  Level FlightAware
04:59AM 53.6840 -13.0530 287° West 434 499 38,000  Level FlightAware
05:00AM 53.7070 -13.1850 286° West 433 498 38,000  Level FlightAware
05:01AM 53.7410 -13.3840 286° West 434 499 38,000  Level FlightAware
05:01AM 53.7610 -13.4990 286° West 434 499 38,000  Level FlightAware
05:02AM 53.7820 -13.6210 286° West 435 501 38,000  Level FlightAware
05:03AM 53.8080 -13.7780 286° West 435 501 38,000  Level FlightAware
05:04AM 53.8270 -13.9080 284° West 435 501 38,000  Level FlightAware
05:04AM 53.8390 -13.9920 284° West 435 501 38,000  Level FlightAware
05:05AM 53.8750 -14.1870 287° West 438 504 38,000  Level FlightAware
05:06AM 53.8990 -14.3350 285° West 439 505 38,000  Level FlightAware
05:06AM 53.9190 -14.4560 286° West 439 505 38,000  Level FlightAware
05:07AM 53.9360 -14.5690 284° West 439 505 38,000  Level FlightAware
05:08AM 53.9540 -14.6830 285° West 439 505 38,000  Level FlightAware
05:09AM 53.9770 -14.8240 286° West 439 505 38,000  Level FlightAware
05:09AM 53.9940 -14.9380 284° West 439 505 38,000  Level FlightAware
05:10AM 54.0120 -15.0510 285° West 439 505 38,000  Level FlightAware
05:11AM 54.0300 -15.1650 285° West 439 505 38,000  Level FlightAware
05:11AM 54.0480 -15.2780 285° West 439 505 38,000  Level FlightAware
05:12AM 54.0700 -15.4200 285° West 439 505 38,000  Level FlightAware
05:13AM 54.0880 -15.5340 285° West 439 505 38,000  Level FlightAware
05:13AM 54.1060 -15.6480 285° West 439 505 38,000  Level FlightAware
05:14AM 54.1240 -15.7620 285° West 439 505 38,000  Level FlightAware
05:15AM 54.1420 -15.8760 285° West 439 505 38,000  Level FlightAware
05:16AM 54.1640 -16.0180 285° West 439 505 38,000  Level FlightAware
05:18AM 54.1833 -16.3999 275° West  Level Estimated
05:19AM 54.1927 -16.5959 275° West  Level Estimated
05:20AM 54.2018 -16.7920 275° West  Level Estimated
05:21AM 54.2106 -16.9881 274° West  Level Estimated
05:22AM 54.2191 -17.1843 274° West  Level Estimated
05:23AM 54.2272 -17.3806 274° West  Level Estimated
05:24AM 54.2351 -17.5770 274° West  Level Estimated
05:25AM 54.2426 -17.7735 274° West  Level Estimated
05:26AM 54.2498 -17.9700 274° West  Level Estimated
05:27AM 54.2567 -18.1666 274° West  Level Estimated
05:28AM 54.2632 -18.3633 273° West  Level Estimated
05:29AM 54.2695 -18.5600 273° West  Level Estimated
05:30AM 54.2754 -18.7568 273° West  Level Estimated
05:31AM 54.2810 -18.9536 273° West  Level Estimated
05:32AM 54.2863 -19.1505 273° West  Level Estimated
05:33AM 54.2912 -19.3475 273° West  Level Estimated
05:34AM 54.2959 -19.5445 272° West  Level Estimated
05:35AM 54.3002 -19.7415 272° West  Level Estimated
05:35AM 55.0000 -20.0000 274° West 448 516 38,000  Level ETMS Enhanced Traffic Management System
05:36AM 54.3042 -19.9386 272° West  Level Estimated
05:37AM 54.3078 -20.1357 272° West  Level Estimated
05:38AM 54.3112 -20.3328 272° West  Level Estimated
05:39AM 54.3142 -20.5300 272° West  Level Estimated
05:40AM 54.3169 -20.7272 271° West  Level Estimated
05:41AM 55.0529 -21.5187 273° West 448 516 38,000  Level FlightAware Transoceanic
05:42AM 55.0589 -21.7359 273° West 448 516 38,000  Level FlightAware Transoceanic
05:43AM 55.0645 -21.9533 272° West 448 516 38,000  Level FlightAware Transoceanic
05:44AM 55.0698 -22.1706 272° West 448 516 38,000  Level FlightAware Transoceanic
05:45AM 55.0746 -22.3881 272° West 448 516 38,000  Level FlightAware Transoceanic
05:46AM 55.0791 -22.6055 272° West 448 516 38,000  Level FlightAware Transoceanic
05:47AM 55.0832 -22.8231 272° West 448 516 38,000  Level FlightAware Transoceanic
05:48AM 55.0868 -23.0406 272° West 448 516 38,000  Level FlightAware Transoceanic
05:49AM 55.0901 -23.2583 271° West 448 516 38,000  Level FlightAware Transoceanic
05:50AM 55.0930 -23.4759 271° West 448 516 38,000  Level FlightAware Transoceanic
05:51AM 55.0956 -23.6936 271° West 448 516 38,000  Level FlightAware Transoceanic
05:52AM 55.0977 -23.9113 271° West 448 516 38,000  Level FlightAware Transoceanic
05:53AM 55.0995 -24.1290 271° West 448 516 38,000  Level FlightAware Transoceanic
05:54AM 55.1008 -24.3467 271° West 448 516 38,000  Level FlightAware Transoceanic
05:55AM 55.1018 -24.5645 270° West 448 516 38,000  Level FlightAware Transoceanic
05:56AM 55.1024 -24.7822 270° West 448 516 38,000  Level FlightAware Transoceanic
05:57AM 55.1026 -25.0000 270° West 448 516 38,000  Level FlightAware Transoceanic
05:58AM 55.1024 -25.2178 270° West 448 516 38,000  Level FlightAware Transoceanic
05:59AM 55.1018 -25.4355 270° West 448 516 38,000  Level FlightAware Transoceanic
06:00AM 55.1008 -25.6533 269° West 448 516 38,000  Level FlightAware Transoceanic
06:01AM 55.0995 -25.8710 269° West 448 516 38,000  Level FlightAware Transoceanic
06:02AM 55.0977 -26.0887 269° West 448 516 38,000  Level FlightAware Transoceanic
06:03AM 55.0956 -26.3064 269° West 448 516 38,000  Level FlightAware Transoceanic
06:04AM 55.0930 -26.5241 269° West 448 516 38,000  Level FlightAware Transoceanic
06:05AM 55.0901 -26.7417 269° West 448 516 38,000  Level FlightAware Transoceanic
06:06AM 55.0868 -26.9594 268° West 448 516 38,000  Level FlightAware Transoceanic
06:07AM 55.0832 -27.1769 268° West 448 516 38,000  Level FlightAware Transoceanic
06:08AM 55.0791 -27.3945 268° West 448 516 38,000  Level FlightAware Transoceanic
06:09AM 55.0746 -27.6119 268° West 448 516 38,000  Level FlightAware Transoceanic
06:10AM 55.0698 -27.8294 268° West 448 516 38,000  Level FlightAware Transoceanic
06:11AM 55.0645 -28.0467 268° West 448 516 38,000  Level FlightAware Transoceanic
06:12AM 55.0589 -28.2641 267° West 448 516 38,000  Level FlightAware Transoceanic
06:13AM 55.0529 -28.4813 267° West 448 516 38,000  Level FlightAware Transoceanic
06:14AM 55.0465 -28.6985 267° West 448 516 38,000  Level FlightAware Transoceanic
06:15AM 55.0397 -28.9156 267° West 448 516 38,000  Level FlightAware Transoceanic
06:16AM 55.0325 -29.1327 267° West 448 516 38,000  Level FlightAware Transoceanic
06:17AM 55.0250 -29.3496 266° West 448 516 38,000  Level FlightAware Transoceanic
06:18AM 55.0170 -29.5665 266° West 448 516 38,000  Level FlightAware Transoceanic
06:19AM 55.0087 -29.7833 266° West 448 516 38,000  Level FlightAware Transoceanic
06:20AM 55.0006 -29.9848 266° West  Level FlightAware Approximate
06:21AM 54.9922 -30.1862 266° West  Level FlightAware Approximate
06:22AM 54.9898 -30.1705 264° West  Level FlightAware Approximate
06:23AM 54.9774 -30.3712 264° West  Level FlightAware Approximate
06:24AM 54.9647 -30.5718 264° West  Level FlightAware Approximate
06:25AM 54.9517 -30.7723 264° West  Level FlightAware Approximate
06:26AM 54.9384 -30.9726 263° West  Level FlightAware Approximate
06:27AM 54.9247 -31.1728 263° West  Level FlightAware Approximate
06:28AM 54.9107 -31.3729 263° West  Level FlightAware Approximate
06:29AM 54.8963 -31.5728 263° West  Level FlightAware Approximate
06:30AM 54.8817 -31.7726 263° West  Level FlightAware Approximate
06:31AM 54.8667 -31.9722 263° West  Level FlightAware Approximate
06:32AM 54.8514 -32.1717 262° West  Level FlightAware Approximate
06:33AM 54.8357 -32.3710 262° West  Level FlightAware Approximate
06:34AM 54.8198 -32.5702 262° West  Level FlightAware Approximate
06:35AM 54.8035 -32.7692 262° West  Level FlightAware Approximate
06:36AM 54.7868 -32.9681 262° West  Level FlightAware Approximate
06:37AM 54.7699 -33.1668 262° West  Level FlightAware Approximate
06:38AM 54.7526 -33.3653 262° West  Level FlightAware Approximate
06:39AM 54.7351 -33.5636 261° West  Level FlightAware Approximate
06:40AM 54.7171 -33.7618 261° West  Level FlightAware Approximate
06:41AM 54.6989 -33.9598 261° West  Level FlightAware Approximate
06:42AM 54.6803 -34.1576 261° West  Level FlightAware Approximate
06:43AM 54.6614 -34.3553 261° West  Level FlightAware Approximate
06:44AM 54.6422 -34.5527 261° West  Level FlightAware Approximate
06:45AM 54.6227 -34.7500 260° West  Level FlightAware Approximate
06:46AM 54.6029 -34.9470 260° West  Level FlightAware Approximate
06:47AM 54.5827 -35.1439 260° West  Level FlightAware Approximate
06:48AM 54.5622 -35.3406 260° West  Level FlightAware Approximate
06:49AM 54.5414 -35.5371 260° West  Level FlightAware Approximate
06:50AM 54.5203 -35.7333 260° West  Level FlightAware Approximate
06:51AM 54.4997 -35.9297 260° West  Level FlightAware Approximate
06:52AM 54.4790 -36.1259 260° West  Level FlightAware Approximate
06:53AM 54.4580 -36.3220 260° West  Level FlightAware Approximate
06:54AM 54.4367 -36.5178 259° West  Level FlightAware Approximate
06:55AM 54.4151 -36.7134 259° West  Level FlightAware Approximate
06:56AM 54.3931 -36.9088 259° West  Level FlightAware Approximate
06:57AM 54.3708 -37.1040 259° West  Level FlightAware Approximate
06:58AM 54.3482 -37.2990 259° West  Level FlightAware Approximate
06:59AM 54.3253 -37.4937 259° West  Level FlightAware Approximate
07:00AM 54.3021 -37.6883 259° West  Level FlightAware Approximate
07:01AM 54.2786 -37.8826 258° West  Level FlightAware Approximate
07:02AM 54.2547 -38.0767 258° West  Level FlightAware Approximate
07:03AM 54.2306 -38.2705 258° West  Level FlightAware Approximate
07:04AM 54.2061 -38.4642 258° West  Level FlightAware Approximate
07:05AM 54.1814 -38.6576 258° West  Level FlightAware Approximate
07:06AM 54.1563 -38.8508 258° West  Level FlightAware Approximate
07:07AM 54.1309 -39.0437 257° West  Level FlightAware Approximate
07:08AM 54.1052 -39.2365 257° West  Level FlightAware Approximate
07:09AM 54.0792 -39.4289 257° West  Level FlightAware Approximate
07:10AM 54.0529 -39.6211 257° West  Level FlightAware Approximate
07:11AM 54.0262 -39.8131 257° West  Level FlightAware Approximate
07:12AM 53.9989 -40.0046 247° West  Level FlightAware Approximate
07:13AM 53.9540 -40.1862 247° West  Level FlightAware Approximate
07:14AM 53.9088 -40.3674 247° West  Level FlightAware Approximate
07:15AM 53.8634 -40.5482 247° West  Level FlightAware Approximate
07:16AM 53.8177 -40.7285 247° West  Level FlightAware Approximate
07:17AM 53.7717 -40.9086 247° West  Level FlightAware Approximate
07:18AM 53.7254 -41.0882 247° West  Level FlightAware Approximate
07:19AM 53.6789 -41.2674 246° West  Level FlightAware Approximate
07:20AM 53.6321 -41.4462 246° West  Level FlightAware Approximate
07:21AM 53.5851 -41.6246 246° West  Level FlightAware Approximate
07:22AM 53.5378 -41.8026 246° West  Level FlightAware Approximate
07:23AM 53.4902 -41.9802 246° West  Level FlightAware Approximate
07:24AM 53.4424 -42.1574 246° West  Level FlightAware Approximate
07:25AM 53.3943 -42.3343 246° West  Level FlightAware Approximate
07:26AM 53.3459 -42.5107 245° Southwest  Level FlightAware Approximate
07:27AM 53.2978 -42.6871 246° West  Level FlightAware Approximate
07:28AM 53.2502 -42.8637 246° West  Level FlightAware Approximate
07:29AM 53.2023 -43.0399 246° West  Level FlightAware Approximate
07:30AM 53.1542 -43.2157 246° West  Level FlightAware Approximate
07:31AM 53.1058 -43.3911 245° Southwest  Level FlightAware Approximate
07:32AM 53.0572 -43.5661 245° Southwest  Level FlightAware Approximate
07:33AM 53.0083 -43.7408 245° Southwest  Level FlightAware Approximate
07:34AM 52.9591 -43.9150 245° Southwest  Level FlightAware Approximate
07:35AM 52.9098 -44.0888 245° Southwest  Level FlightAware Approximate
07:36AM 52.8601 -44.2623 245° Southwest  Level FlightAware Approximate
07:37AM 52.8102 -44.4353 245° Southwest  Level FlightAware Approximate
07:38AM 52.7600 -44.6079 244° Southwest  Level FlightAware Approximate
07:39AM 52.7096 -44.7802 244° Southwest  Level FlightAware Approximate
07:40AM 52.6590 -44.9520 244° Southwest  Level FlightAware Approximate
07:41AM 52.6080 -45.1235 244° Southwest  Level FlightAware Approximate
07:42AM 52.5569 -45.2945 244° Southwest  Level FlightAware Approximate
07:43AM 52.5055 -45.4652 244° Southwest  Level FlightAware Approximate
07:44AM 52.4538 -45.6354 244° Southwest  Level FlightAware Approximate
07:45AM 52.4020 -45.8053 243° Southwest  Level FlightAware Approximate
07:46AM 52.3498 -45.9747 243° Southwest  Level FlightAware Approximate
07:47AM 52.2975 -46.1438 243° Southwest  Level FlightAware Approximate
07:48AM 52.2449 -46.3124 243° Southwest  Level FlightAware Approximate
07:49AM 52.1920 -46.4807 243° Southwest  Level FlightAware Approximate
07:50AM 52.1389 -46.6485 243° Southwest  Level FlightAware Approximate
07:51AM 52.0856 -46.8160 243° Southwest  Level FlightAware Approximate
07:52AM 52.0320 -46.9830 243° Southwest  Level FlightAware Approximate
07:53AM 51.9782 -47.1496 242° Southwest  Level FlightAware Approximate
07:54AM 51.9242 -47.3159 242° Southwest  Level FlightAware Approximate
07:55AM 51.8699 -47.4817 242° Southwest  Level FlightAware Approximate
07:56AM 51.8154 -47.6472 242° Southwest  Level FlightAware Approximate
07:57AM 51.7607 -47.8122 242° Southwest  Level FlightAware Approximate
07:58AM 51.7057 -47.9768 242° Southwest  Level FlightAware Approximate
07:59AM 51.6505 -48.1411 242° Southwest  Level FlightAware Approximate
08:00AM 51.5951 -48.3049 241° Southwest  Level FlightAware Approximate
08:00AM 51.0500 -49.7833 241° Southwest 440 506 38,000  Level Gander Center
08:01AM 51.5394 -48.4684 241° Southwest  Level FlightAware Approximate
08:01AM 51.0167 -49.9167 248° West 440 506 38,000  Level Moncton Center
08:01AM 51.0000 -49.9500 232° Southwest 440 506 38,000  Level Gander Center
08:02AM 51.4836 -48.6314 241° Southwest  Level FlightAware Approximate
08:02AM 50.9500 -50.1333 247° West 430 495 38,000  Level Gander Center
08:03AM 51.4275 -48.7940 241° Southwest  Level FlightAware Approximate
08:03AM 50.9333 -50.3333 263° West 440 506 38,000  Level Gander Center
08:04AM 51.3711 -48.9563 241° Southwest  Level FlightAware Approximate
08:04AM 50.9000 -50.5167 254° West 440 506 38,000  Level Gander Center
08:05AM 51.3146 -49.1181 241° Southwest  Level FlightAware Approximate
08:05AM 50.8833 -50.7167 263° West 440 506 38,000  Level Gander Center
08:06AM 51.2581 -49.2789 241° Southwest  Level FlightAware Approximate
08:06AM 50.8333 -50.8333 236° Southwest 440 506 38,000  Level Moncton Center
08:07AM 50.8167 -51.0333 263° West 440 506 38,000  Level Moncton Center
08:08AM 50.7833 -51.2167 254° West 440 506 38,000  Level Gander Center
08:09AM 50.7500 -51.4000 254° West 440 506 38,000  Level Gander Center
08:10AM 50.7167 -51.6000 255° West 440 506 38,000  Level Gander Center
08:11AM 50.7000 -51.7667 261° West 440 506 38,000  Level Gander Center
08:12AM 50.6667 -51.9500 254° West 440 506 38,000  Level Gander Center
08:13AM 50.6333 -52.1500 255° West 440 506 38,000  Level Gander Center
08:18AM 50.4760 -53.2000 255° West 447 514 38,000  Level FlightAware
08:19AM 50.4530 -53.3230 254° West 450 518 38,000  Level FlightAware
08:20AM 50.4290 -53.4510 254° West 450 518 38,000  Level FlightAware
08:20AM 50.4030 -53.5910 254° West 450 518 38,000  Level FlightAware
08:21AM 50.3780 -53.7190 253° West 448 516 38,000  Level FlightAware
08:22AM 50.3460 -53.8850 253° West 448 516 38,000  Level FlightAware
08:23AM 50.3190 -54.0270 253° West 448 516 38,000  Level FlightAware
08:23AM 50.2920 -54.1610 253° West 446 513 38,000  Level FlightAware
08:24AM 50.2660 -54.2870 252° West 446 513 38,000  Level FlightAware
08:25AM 50.2390 -54.4170 252° West 446 513 38,000  Level FlightAware
08:26AM 50.2170 -54.5210 252° West 446 513 38,000  Level FlightAware
08:26AM 50.1960 -54.6260 253° West 446 513 38,000  Level FlightAware
08:27AM 50.1590 -54.8280 254° West 433 498 38,000  Level FlightAware
08:28AM 50.1360 -54.9410 252° West 433 498 38,000  Level FlightAware
08:28AM 50.1150 -55.0430 252° West 433 498 38,000  Level FlightAware
08:29AM 50.0900 -55.1660 252° West 433 498 38,000  Level FlightAware
08:30AM 50.0680 -55.2670 251° West 433 498 38,000  Level FlightAware
08:31AM 50.0330 -55.4400 253° West 434 499 38,000  Level FlightAware
08:32AM 49.9980 -55.6060 252° West 431 496 38,000  Level FlightAware
08:32AM 49.9730 -55.7250 252° West 431 496 38,000  Level FlightAware
08:33AM 49.9470 -55.8460 252° West 430 495 38,000  Level FlightAware
08:34AM 49.9260 -55.9460 252° West 430 495 38,000  Level FlightAware
08:34AM 49.9060 -56.0460 253° West 430 495 38,000  Level FlightAware
08:35AM 49.8850 -56.1460 252° West 430 495 38,000  Level FlightAware
08:36AM 49.8640 -56.2460 252° West 430 495 38,000  Level FlightAware
08:36AM 49.8380 -56.3710 252° West 430 495 38,000  Level FlightAware
08:37AM 49.8170 -56.4700 252° West 430 495 38,000  Level FlightAware
08:38AM 49.7960 -56.5700 252° West 430 495 38,000  Level FlightAware
08:38AM 49.7750 -56.6700 252° West 430 495 38,000  Level FlightAware
08:39AM 49.7540 -56.7690 252° West 430 495 38,000  Level FlightAware
08:40AM 49.7280 -56.8940 252° West 430 495 38,000  Level FlightAware
08:40AM 49.6500 -57.0667 252° West 420 483 38,000  Level Gander Center
08:41AM 49.6167 -57.2500 254° West 420 483 38,000  Level Gander Center
08:42AM 49.5667 -57.4167 245° Southwest 410 472 38,000  Level Gander Center
08:43AM 49.5333 -57.5667 251° West 410 472 38,000 420 Level Gander Center
08:44AM 49.5000 -57.7333 253° West 410 472 38,900 780 Climbing Gander Center
08:45AM 49.4500 -57.9167 247° West 420 483 39,600 540 Climbing Gander Center
08:46AM 49.4000 -58.0667 243° Southwest 420 483 40,000 180 Climbing Gander Center
08:47AM 49.3667 -58.2000 249° West 420 483 40,000  Level Moncton Center
08:48AM 49.3000 -58.4167 245° Southwest 430 495 40,000  Level Gander Center
08:49AM 49.2500 -58.5667 243° Southwest 430 495 40,000  Level Gander Center
08:50AM 49.2167 -58.6833 246° West 430 495 40,000  Level Moncton Center
08:51AM 49.1667 -58.9000 251° West 430 495 40,000  Level Gander Center
08:52AM 49.1167 -59.0167 237° Southwest 430 495 40,000  Level Moncton Center
08:53AM 49.0500 -59.1833 239° Southwest 430 495 40,000  Level Moncton Center
08:54AM 49.0167 -59.3667 255° West 430 495 40,000  Level Moncton Center
08:54AM 49.0000 -59.4000 233° Southwest 430 495 40,000  Level Gander Center
08:55AM 48.9500 -59.5833 248° West 430 495 40,000  Level Gander Center
08:56AM 48.9167 -59.6833 243° Southwest 420 483 40,000  Level Moncton Center
08:57AM 48.8500 -59.8333 236° Southwest 420 483 40,000  Level Moncton Center
08:57AM 48.8333 -59.8833 243° Southwest 430 495 40,000  Level Gander Center
08:58AM 48.8000 -60.0000 247° West 420 483 40,000  Level Moncton Center
08:59AM 48.7667 -60.1500 251° West 420 483 40,000  Level Moncton Center
09:00AM 48.7000 -60.3333 241° Southwest 420 483 40,000  Level Moncton Center
09:01AM 48.6500 -60.5167 248° West 420 483 40,000  Level Gander Center
09:02AM 48.6167 -60.6500 249° West 420 483 40,000  Level Moncton Center
09:03AM 48.5500 -60.8000 236° Southwest 420 483 40,000  Level Moncton Center
09:04AM 48.5000 -60.9667 246° West 420 483 40,000  Level Moncton Center
09:05AM 48.4333 -61.1167 236° Southwest 420 483 40,000  Level Moncton Center
09:06AM 48.4000 -61.2667 252° West 430 495 40,000  Level Moncton Center
09:07AM 48.3333 -61.4833 245° Southwest 430 495 40,000  Level Gander Center
09:08AM 48.2833 -61.6000 237° Southwest 420 483 40,000  Level Moncton Center
09:08AM 48.2833 -61.6333 270° West 420 483 40,000  Level Gander Center
09:09AM 48.2167 -61.8167 241° Southwest 420 483 40,000  Level Gander Center
09:10AM 48.1667 -61.9667 243° Southwest 420 483 40,000  Level Gander Center
09:11AM 48.1333 -62.0667 243° Southwest 420 483 40,000  Level Moncton Center
09:11AM 48.1167 -62.1000 233° Southwest 430 495 40,000  Level Gander Center
09:12AM 48.0667 -62.2833 248° West 420 483 40,000  Level Gander Center
09:13AM 48.0000 -62.4333 236° Southwest 420 483 40,000  Level Gander Center
09:14AM 47.9500 -62.5833 244° Southwest 420 483 40,000  Level Gander Center
09:15AM 47.9167 -62.6667 239° Southwest 420 483 40,000  Level Moncton Center
09:16AM 47.8500 -62.8500 242° Southwest 420 483 40,000  Level Moncton Center
09:17AM 47.8167 -63.0000 252° West 420 483 40,000  Level Moncton Center
09:18AM 47.7500 -63.1500 237° Southwest 420 483 40,000  Level Moncton Center
09:19AM 47.7000 -63.3000 244° Southwest 420 483 40,000  Level Moncton Center
09:20AM 47.6333 -63.4833 242° Southwest 420 483 40,000  Level Moncton Center
09:21AM 47.5833 -63.6333 244° Southwest 420 483 40,000  Level Moncton Center
09:22AM 47.5333 -63.7833 244° Southwest 420 483 40,000  Level Moncton Center
09:23AM 47.4667 -63.9333 237° Southwest 420 483 40,000  Level Moncton Center
09:24AM 47.4167 -64.0833 244° Southwest 420 483 40,000  Level Moncton Center
09:25AM 47.3500 -64.2167 234° Southwest 420 483 40,000  Level Moncton Center
09:26AM 47.3000 -64.3667 244° Southwest 420 483 40,000  Level Moncton Center
09:27AM 47.2500 -64.5167 244° Southwest 420 483 40,000  Level Moncton Center
09:28AM 47.1833 -64.6667 237° Southwest 410 472 40,000  Level Moncton Center
09:29AM 47.1333 -64.8167 244° Southwest 410 472 40,000  Level Moncton Center
09:30AM 47.0833 -64.9667 244° Southwest 410 472 40,000  Level Moncton Center
09:31AM 47.0167 -65.1167 237° Southwest 410 472 40,000  Level Moncton Center
09:32AM 46.9667 -65.2500 241° Southwest 420 483 40,000  Level Moncton Center
09:33AM 46.9167 -65.4000 244° Southwest 410 472 40,000  Level Moncton Center
09:34AM 46.8333 -65.5500 231° Southwest 410 472 40,000  Level Moncton Center
09:35AM 46.7833 -65.7000 244° Southwest 420 483 40,000  Level Moncton Center
09:36AM 46.7333 -65.8667 246° West 410 472 40,000  Level Moncton Center
09:42AM 46.4380 -66.6570 246° West 418 481 40,000  Level FlightAware
09:42AM 46.3840 -66.7920 240° Southwest 416 479 40,000  Level FlightAware
09:43AM 46.3420 -66.8900 238° Southwest 419 482 40,000  Level FlightAware
09:44AM 46.2910 -67.0120 239° Southwest 420 483 40,000  Level FlightAware
09:45AM 46.2460 -67.1210 239° Southwest 421 484 40,000  Level FlightAware
09:45AM 46.2070 -67.2120 238° Southwest 420 483 40,000  Level FlightAware
09:46AM 46.1700 -67.3020 239° Southwest 421 484 40,000  Level FlightAware
09:47AM 46.1100 -67.4430 238° Southwest 417 480 40,000  Level FlightAware
09:47AM 46.0790 -67.5170 239° Southwest 417 480 40,000  Level FlightAware
09:48AM 46.0280 -67.6350 238° Southwest 417 480 40,000  Level FlightAware
09:49AM 45.9570 -67.8020 239° Southwest 417 480 40,000  Level FlightAware
09:50AM 45.9310 -67.8610 238° Southwest 417 480 40,000  Level FlightAware
09:51AM 45.8850 -67.9680 238° Southwest 417 480 40,000  Level FlightAware
09:52AM 45.8120 -68.1370 238° Southwest 422 486 40,000  Level FlightAware
09:53AM 45.7400 -68.3020 238° Southwest 424 488 40,000  Level FlightAware
09:54AM 45.6620 -68.4800 238° Southwest 425 489 40,000  Level FlightAware
09:55AM 45.6300 -68.5530 238° Southwest 425 489 40,000  Level FlightAware
09:56AM 45.5780 -68.6700 238° Southwest 424 488 40,000  Level FlightAware
09:57AM 45.5140 -68.8160 238° Southwest 423 487 40,000  Level FlightAware
09:57AM 45.4710 -68.9100 237° Southwest 425 489 40,000  Level FlightAware
09:58AM 45.4290 -69.0060 238° Southwest 425 489 40,000  Level FlightAware
09:59AM 45.3870 -69.0990 237° Southwest 424 488 40,000  Level FlightAware
09:59AM 45.3340 -69.2160 237° Southwest 426 490 40,000  Level FlightAware
10:00AM 45.2920 -69.3100 238° Southwest 427 491 40,000  Level FlightAware
10:01AM 45.2500 -69.4020 237° Southwest 429 494 40,000  Level FlightAware
10:01AM 45.1990 -69.5140 237° Southwest 430 495 40,000  Level FlightAware
10:02AM 45.1560 -69.6090 237° Southwest 431 496 40,000  Level FlightAware
10:03AM 45.1110 -69.7070 237° Southwest 432 497 40,000  Level FlightAware
10:04AM 45.0660 -69.8070 238° Southwest 432 497 40,000  Level FlightAware
10:04AM 45.0230 -69.9000 237° Southwest 431 496 40,000  Level FlightAware
10:05AM 44.9720 -70.0110 237° Southwest 432 497 40,000  Level FlightAware
10:06AM 44.9280 -70.1060 237° Southwest 429 494 40,000  Level FlightAware
10:06AM 44.8850 -70.2000 237° Southwest 429 494 40,000  Level FlightAware
10:07AM 44.8370 -70.3010 236° Southwest 430 495 40,000  Level FlightAware
10:08AM 44.7930 -70.3960 237° Southwest 430 495 40,000  Level FlightAware
10:08AM 44.7500 -70.4880 237° Southwest 431 496 40,000  Level FlightAware
10:09AM 44.7000 -70.5950 237° Southwest 432 497 40,000  Level FlightAware
10:10AM 44.6560 -70.6880 236° Southwest 429 494 40,000  Level FlightAware
10:11AM 44.6080 -70.7900 237° Southwest 422 486 40,000  Level FlightAware
10:11AM 44.5640 -70.8820 236° Southwest 422 486 40,000  Level FlightAware
10:12AM 44.5190 -70.9720 235° Southwest 422 486 40,000  Level FlightAware
10:13AM 44.4650 -71.0680 232° Southwest 423 487 40,000  Level FlightAware
10:13AM 44.4140 -71.1530 230° Southwest 423 487 40,000  Level FlightAware
10:14AM 44.3580 -71.2460 230° Southwest 423 487 40,000  Level FlightAware
10:15AM 44.3080 -71.3290 230° Southwest 422 486 40,000  Level FlightAware
10:15AM 44.2590 -71.4120 231° Southwest 423 487 40,000  Level FlightAware
10:16AM 44.2010 -71.5080 230° Southwest 424 488 40,000  Level FlightAware
10:17AM 44.1500 -71.5910 229° Southwest 426 490 40,000  Level FlightAware
10:18AM 44.0940 -71.6840 230° Southwest 425 489 40,000  Level FlightAware
10:18AM 44.0440 -71.7670 230° Southwest 428 493 40,000  Level FlightAware
10:19AM 43.9930 -71.8520 230° Southwest 431 496 40,000  Level FlightAware
10:20AM 43.9350 -71.9470 230° Southwest 434 499 40,000  Level FlightAware
10:20AM 43.8820 -72.0330 229° Southwest 434 499 40,000  Level FlightAware
10:21AM 43.8300 -72.1180 230° Southwest 434 499 40,000  Level FlightAware
10:22AM 43.7730 -72.2110 230° Southwest 430 495 40,000  Level FlightAware
10:22AM 43.7220 -72.2930 229° Southwest 430 495 40,000  Level FlightAware
10:23AM 43.6620 -72.3900 229° Southwest 427 491 40,000 -120 Level FlightAware
10:24AM 43.6100 -72.4740 229° Southwest 424 488 39,900 -600 Descending FlightAware
10:24AM 43.5610 -72.5540 230° Southwest 424 488 39,200 -1,380 Descending FlightAware
10:25AM 43.5030 -72.6460 229° Southwest 428 493 38,000 -1,440 Descending FlightAware
10:26AM 43.4530 -72.7260 229° Southwest 414 476 37,200 -1,860 Descending FlightAware
10:27AM 43.3940 -72.8210 229° Southwest 423 487 35,400 -1,980 Descending FlightAware
10:27AM 43.3450 -72.9000 230° Southwest 414 476 34,400 -2,580 Descending FlightAware
10:28AM 43.2950 -72.9800 229° Southwest 432 497 32,000 -3,360 Descending FlightAware
10:29AM 43.2520 -73.0470 229° Southwest 445 512 29,700 -2,640 Descending FlightAware
10:30AM 43.1570 -73.1960 229° Southwest 418 481 27,000 -2,100 Descending FlightAware
10:30AM 43.1140 -73.2640 229° Southwest 404 465 26,100 -1,020 Descending FlightAware
10:31AM 43.0680 -73.3360 229° Southwest 394 453 25,700 -300 Descending FlightAware
10:32AM 43.0280 -73.4000 229° Southwest 394 453 25,700 -2,760 Level FlightAware
10:33AM 42.9550 -73.5130 229° Southwest 357 411 21,800 -3,540 Descending FlightAware
10:33AM 42.9050 -73.5910 229° Southwest 349 402 20,400 -1,920 Descending FlightAware
10:34AM 42.8640 -73.6550 229° Southwest 336 387 19,100 -2,100 Descending FlightAware
10:35AM 42.8190 -73.7250 229° Southwest 332 382 17,500 -1,980 Descending FlightAware
10:35AM 42.7780 -73.7890 229° Southwest 333 383 16,300 -1,140 Descending FlightAware
10:36AM 42.7180 -73.8410 212° Southwest 382 440 15,900 -300 Descending FlightAware
10:37AM 42.6580 -73.8680 198° South 386 444 15,900  Level FlightAware
10:38AM 42.5620 -73.9110 198° South 383 441 15,900  Level FlightAware
10:38AM 42.5040 -73.9360 198° South 383 441 15,900  Level FlightAware
10:39AM 42.4470 -73.9610 198° South 383 441 15,900  Level FlightAware
10:40AM 42.3750 -73.9930 198° South 383 441 15,900  Level FlightAware
10:41AM 42.3180 -74.0180 198° South 383 441 15,900  Level FlightAware
10:41AM 42.2610 -74.0430 198° South 383 441 15,900 120 Level FlightAware
10:42AM 42.1133 -74.0828 198° South 388 447 16,100  Climbing Boston Center
10:43AM 42.0128 -74.1306 199° South 383 441 16,000 -240 Descending Boston Center
10:44AM 41.9225 -74.1700 198° South 383 441 15,700 -780 Descending Boston Center
10:45AM 41.8217 -74.2147 198° South 364 419 14,500 -1,080 Descending Boston Center
10:46AM 41.7419 -74.2486 198° South 343 395 13,500 -1,380 Descending Boston Center
10:47AM 41.6539 -74.2850 197° South 321 369 11,800 -1,680 Descending Boston Center
10:48AM 41.5803 -74.3189 199° South 308 354 10,300 -1,620 Descending Boston Center
10:49AM 41.4922 -74.3550 197° South 308 354 8,600 -600 Descending Boston Center
10:55AM 41.0923 -74.5175 197° South 308 354 6,300 -420 Descending FlightAware ADS-B
10:55AM 41.0897 -74.5127 126° Southeast 322 371 6,300 -780 Level FlightAware ADS-B
10:55AM 41.0863 -74.5043 118° Southeast 320 368 6,200 -780 Descending FlightAware ADS-B
10:55AM 41.0846 -74.4990 113° Southeast 321 369 6,200 -480 Level FlightAware ADS-B
10:55AM 41.0803 -74.4777 105° East 321 369 6,100 -480 Descending FlightAware ADS-B
10:55AM 41.0758 -74.4474 101° East 321 369 6,000 -180 Descending FlightAware ADS-B
10:56AM 41.0708 -74.4130 101° East 322 371 6,000  Level FlightAware ADS-B
10:56AM 41.0667 -74.3819 100° East 313 360 6,000 -300 Level FlightAware ADS-B
10:57AM 41.0550 -74.2817 99° East 294 338 5,700 -600 Descending FlightAware ADS-B
10:57AM 41.0518 -74.2530 98° East 291 335 5,300 -1,620 Descending FlightAware ADS-B
10:58AM 41.0449 -74.1900 98° East 290 334 4,300 -1,620 Descending FlightAware ADS-B
10:58AM 41.0432 -74.1818 105° East 290 334 4,200 -1,140 Descending FlightAware ADS-B
10:58AM 41.0399 -74.1720 114° Southeast 285 328 4,100 -1,020 Descending FlightAware ADS-B
10:58AM 41.0355 -74.1634 124° Southeast 278 320 4,000 -420 Descending FlightAware ADS-B
10:58AM 41.0265 -74.1529 139° Southeast 264 304 4,000  Level FlightAware ADS-B
10:58AM 41.0235 -74.1503 147° Southeast 259 298 4,000  Level FlightAware ADS-B
10:59AM 41.0082 -74.1394 152° Southeast 244 281 4,000  Level FlightAware ADS-B
10:59AM 40.9932 -74.1289 152° Southeast 228 262 4,000  Level FlightAware ADS-B
10:59AM 40.9793 -74.1193 152° Southeast 217 250 4,000 -240 Level FlightAware ADS-B
10:59AM 40.9644 -74.1085 151° Southeast 210 242 3,900 -600 Descending FlightAware ADS-B
11:00AM 40.9509 -74.0985 151° Southeast 207 238 3,700 -840 Descending FlightAware ADS-B
11:00AM 40.9390 -74.0901 152° Southeast 204 235 3,500 -900 Descending FlightAware ADS-B
11:00AM 40.9278 -74.0822 152° Southeast 199 229 3,300 -900 Descending FlightAware ADS-B
11:00AM 40.9169 -74.0741 151° Southeast 200 230 3,100 -1,020 Descending FlightAware ADS-B
11:00AM 40.9131 -74.0715 153° Southeast 196 226 3,000 -720 Descending FlightAware ADS-B
11:00AM 40.9098 -74.0698 159° South 194 223 3,000  Level FlightAware ADS-B
11:01AM 40.9057 -74.0683 165° South 196 226 3,000  Level FlightAware ADS-B
11:01AM 40.9007 -74.0670 169° South 197 227 3,000  Level FlightAware ADS-B
11:01AM 40.8947 -74.0654 169° South 199 229 3,000  Level FlightAware ADS-B
11:01AM 40.8872 -74.0654 180° South 199 229 3,000  Level FlightAware ADS-B
11:01AM 40.8832 -74.0666 193° South 198 228 3,000  Level FlightAware ADS-B
11:01AM 40.8789 -74.0686 199° South 196 226 3,000  Level FlightAware ADS-B
11:01AM 40.8762 -74.0704 207° Southwest 193 222 3,000  Level FlightAware ADS-B
11:01AM 40.8638 -74.0779 205° Southwest 189 217 3,000  Level FlightAware ADS-B
11:02AM 40.8532 -74.0844 205° Southwest 184 212 3,000 -240 Level FlightAware ADS-B
11:02AM 40.8415 -74.0918 206° Southwest 185 213 2,900 -780 Descending FlightAware ADS-B
11:02AM 40.8295 -74.0995 206° Southwest 186 214 2,600 -1,080 Descending FlightAware ADS-B
11:03AM 40.8106 -74.1114 205° Southwest 187 215 2,200 -1,080 Descending FlightAware ADS-B
11:03AM 40.7989 -74.1190 206° Southwest 178 205 1,900 -1,080 Descending FlightAware ADS-B
11:03AM 40.7890 -74.1249 204° Southwest 175 201 1,700 -900 Descending FlightAware ADS-B
11:03AM 40.7785 -74.1316 206° Southwest 169 194 1,500 -780 Descending FlightAware ADS-B
11:04AM 40.7673 -74.1385 205° Southwest 156 180 1,300 -900 Descending FlightAware ADS-B
11:04AM 40.7613 -74.1425 207° Southwest 152 175 1,100 -1,020 Descending FlightAware ADS-B
11:04AM 40.7528 -74.1478 205° Southwest 143 165 900 -720 Descending FlightAware ADS-B
11:05AM 40.7126 -74.1728 205° Southwest 137 158 100 -720 Descending FlightAware ADS-B
11:13AM 40.6925 -74.1687 196° South  Level Estimated
11:14AM 40.6925 -74.1687 196° South  Level Estimated